Time;durP1;ratioP1;P1;durP2;ratioP2;P2;SDS_P1;SDS_P2;PMS_P1;PMS_P2;Temp;Humidity;BMP_temperature;BMP_pressure;BME280_temperature;BME280_humidity;BME280_pressure;Samples;Min_cycle;Max_cycle;Signal;HPM_P1;HPM_P2
2021/09/23 00:00:53;;;;;;;11.70;8.20;;;;;;;7.43;85.77;97642.34;117352;1175;59535;-74
2021/09/23 00:05:59;;;;;;;15.10;9.60;;;;;;;7.43;86.14;97640.45;117210;1176;71462;-69
2021/09/23 00:08:29;;;;;;;13.20;9.80;;;;;;;7.42;85.65;97636.52;117291;1176;68263;-73
2021/09/23 00:10:59;;;;;;;12.40;9.60;;;;;;;7.44;85.56;97638.54;117320;1175;69048;-75
2021/09/23 00:13:28;;;;;;;10.90;8.00;;;;;;;7.44;85.47;97638.92;117343;1175;59472;-74
2021/09/23 00:16:04;;;;;;;13.80;9.50;;;;;;;7.44;85.40;97638.46;117332;1176;59510;-68
2021/09/23 00:18:45;;;;;;;12.10;9.10;;;;;;;7.43;85.59;97638.23;117108;1175;71006;-72
2021/09/23 00:21:14;;;;;;;11.60;8.80;;;;;;;7.45;85.56;97641.45;117397;1176;68336;-71
2021/09/23 00:23:45;;;;;;;11.50;8.20;;;;;;;7.46;85.10;97639.92;117372;1177;69080;-70
2021/09/23 00:26:15;;;;;;;11.70;8.70;;;;;;;7.45;85.12;97642.54;117521;1175;59504;-71
2021/09/23 00:28:46;;;;;;;12.70;8.60;;;;;;;7.45;84.63;97640.89;117298;1175;59549;-74
2021/09/23 00:31:15;;;;;;;;;;;;;;;7.46;84.80;97644.17;117301;1175;70651;-74
2021/09/23 00:33:45;;;;;;;11.10;8.30;;;;;;;7.47;85.08;97644.63;117330;1176;69036;-71
2021/09/23 00:36:14;;;;;;;15.10;9.10;;;;;;;7.48;84.80;97645.02;117345;1175;69024;-72
2021/09/23 00:38:44;;;;;;;11.40;8.40;;;;;;;7.48;84.64;97650.92;117458;1176;59574;-70
2021/09/23 00:41:14;;;;;;;14.20;9.10;;;;;;;7.47;84.86;97650.92;117259;1174;59527;-73
2021/09/23 00:43:48;;;;;;;12.40;8.90;;;;;;;7.49;84.69;97649.80;117320;1175;70434;-69
2021/09/23 00:46:17;;;;;;;12.90;8.40;;;;;;;7.50;84.72;97650.41;117294;1177;68468;-74
2021/09/23 00:48:50;;;;;;;12.30;8.60;;;;;;;7.49;84.68;97648.38;117336;1176;69332;-74
2021/09/23 00:51:20;;;;;;;12.20;8.70;;;;;;;7.49;84.61;97648.16;117402;1175;59474;-75
2021/09/23 00:53:50;;;;;;;12.10;8.80;;;;;;;7.49;84.36;97647.67;117249;1176;59546;-74
2021/09/23 00:56:19;;;;;;;11.40;8.80;;;;;;;7.49;84.66;97649.89;117203;1177;70929;-71
2021/09/23 00:58:49;;;;;;;11.70;8.80;;;;;;;7.47;84.41;97648.57;117214;1177;69137;-70
2021/09/23 01:01:19;;;;;;;12.80;8.50;;;;;;;7.46;84.46;97648.11;117326;1176;69159;-75
2021/09/23 01:03:50;;;;;;;12.30;8.40;;;;;;;7.45;84.46;97645.29;117229;1176;59550;-73
2021/09/23 01:06:21;;;;;;;9.30;7.40;;;;;;;7.45;84.54;97647.96;117440;1176;59507;-70
2021/09/23 01:08:58;;;;;;;12.50;7.80;;;;;;;7.45;84.22;97644.34;117281;1176;71410;-73
2021/09/23 01:11:29;;;;;;;11.40;8.20;;;;;;;7.41;84.24;97644.33;117003;1177;69233;-73
2021/09/23 01:14:04;;;;;;;12.80;8.30;;;;;;;7.40;84.60;97643.33;117059;1177;69215;-68
2021/09/23 01:16:54;;;;;;;11.80;9.00;;;;;;;7.38;84.54;97647.52;117066;1177;59532;-73
2021/09/23 01:19:36;;;;;;;12.20;7.60;;;;;;;7.36;84.17;97643.14;117021;1177;59546;-71
2021/09/23 01:22:06;;;;;;;10.80;7.70;;;;;;;7.32;84.43;97643.58;117281;1174;71555;-74
2021/09/23 01:24:56;;;;;;;12.60;8.30;;;;;;;7.26;84.59;97647.90;117240;1177;70134;-72
2021/09/23 01:27:27;;;;;;;11.40;8.60;;;;;;;7.23;84.61;97650.23;117187;1177;68074;-70
2021/09/23 01:29:57;;;;;;;11.50;7.80;;;;;;;7.19;84.35;97644.54;116996;1176;59497;-72
2021/09/23 01:32:27;;;;;;;10.90;8.20;;;;;;;7.14;84.72;97645.61;117241;1177;59505;-74
2021/09/23 01:35:02;;;;;;;12.10;8.70;;;;;;;7.10;84.96;97644.02;116966;1177;70616;-69
2021/09/23 01:37:39;;;;;;;12.60;9.40;;;;;;;7.06;84.79;97646.19;117034;1177;68051;-74
2021/09/23 01:40:11;;;;;;;15.40;9.10;;;;;;;7.04;84.74;97645.20;116973;1177;69063;-72
2021/09/23 01:42:43;;;;;;;13.50;9.30;;;;;;;7.01;84.76;97648.13;117065;1177;59484;-73
2021/09/23 01:45:14;;;;;;;12.60;8.70;;;;;;;6.97;85.58;97644.30;117021;1177;59529;-72
2021/09/23 01:47:49;;;;;;;13.10;8.80;;;;;;;6.95;85.18;97652.59;117243;1176;70632;-73
2021/09/23 01:50:22;;;;;;;12.10;8.90;;;;;;;6.94;85.07;97654.81;117017;1177;69288;-71
2021/09/23 01:52:54;;;;;;;10.80;8.10;;;;;;;6.92;85.11;97656.25;117187;1177;69805;-73
2021/09/23 01:55:24;;;;;;;10.80;7.30;;;;;;;6.92;84.89;97659.17;117118;1177;59533;-71
2021/09/23 01:57:55;;;;;;;11.30;8.00;;;;;;;6.90;85.18;97662.81;117059;1177;60362;-73
2021/09/23 02:00:25;;;;;;;11.50;8.10;;;;;;;6.91;85.06;97657.05;117157;1170;71353;-73
2021/09/23 02:02:56;;;;;;;12.30;9.10;;;;;;;6.90;84.94;97658.10;117315;1176;69197;-73
2021/09/23 02:05:46;;;;;;;13.00;8.80;;;;;;;6.89;85.07;97656.22;117025;1176;68466;-69
2021/09/23 02:08:16;;;;;;;9.30;6.90;;;;;;;6.90;84.72;97652.27;116983;1177;59545;-73
2021/09/23 02:10:46;;;;;;;12.50;8.10;;;;;;;6.88;85.08;97650.73;117196;1177;59593;-74
2021/09/23 02:13:16;;;;;;;12.20;8.60;;;;;;;6.86;84.90;97648.94;117359;1175;69610;-72
2021/09/23 02:15:45;;;;;;;13.80;8.70;;;;;;;6.85;85.20;97647.85;117162;1177;69231;-72
2021/09/23 02:18:14;;;;;;;12.20;8.80;;;;;;;6.82;85.13;97648.04;117255;1176;69167;-70
2021/09/23 02:20:45;;;;;;;12.80;8.20;;;;;;;6.81;85.09;97647.71;117178;1177;59554;-70
2021/09/23 02:23:15;;;;;;;11.80;8.30;;;;;;;6.79;85.17;97651.51;117374;1177;59593;-74
2021/09/23 02:25:45;;;;;;;11.00;8.30;;;;;;;6.79;85.05;97650.97;117345;1177;71223;-74
2021/09/23 02:28:15;;;;;;;12.00;8.40;;;;;;;6.78;85.07;97653.89;117253;1176;69312;-74
2021/09/23 02:30:44;;;;;;;11.20;8.00;;;;;;;6.75;85.52;97654.80;117309;1176;69287;-72
2021/09/23 02:33:14;;;;;;;11.40;8.30;;;;;;;6.75;85.39;97657.31;117346;1177;59526;-70
2021/09/23 02:35:44;;;;;;;12.10;9.00;;;;;;;6.74;85.51;97654.65;117246;1176;59544;-74
2021/09/23 02:38:13;;;;;;;12.10;8.80;;;;;;;6.73;85.42;97656.86;117151;1173;71219;-72
2021/09/23 02:40:43;;;;;;;12.50;8.40;;;;;;;6.73;85.38;97660.33;117245;1176;68433;-74
2021/09/23 02:43:14;;;;;;;10.40;7.90;;;;;;;6.72;85.62;97662.45;117261;1176;68440;-74
2021/09/23 02:45:43;;;;;;;;;;;;;;;6.71;85.47;97659.80;117238;1177;59526;-75
2021/09/23 02:48:13;;;;;;;12.00;8.90;;;;;;;6.68;85.67;97657.39;117028;1177;59491;-73
2021/09/23 02:50:44;;;;;;;15.10;8.90;;;;;;;6.66;85.47;97658.75;117183;1177;70510;-75
2021/09/23 02:53:13;;;;;;;16.20;9.10;;;;;;;6.65;85.47;97658.13;117129;1176;69003;-73
2021/09/23 02:55:43;;;;;;;14.10;8.50;;;;;;;6.64;85.48;97661.44;117074;1177;68472;-73
2021/09/23 02:58:12;;;;;;;11.40;8.90;;;;;;;6.63;85.60;97661.52;117349;1176;60186;-73
2021/09/23 03:00:42;;;;;;;14.40;9.80;;;;;;;6.62;85.60;97664.27;117098;1177;59571;-71
2021/09/23 03:03:14;;;;;;;14.90;9.10;;;;;;;6.60;85.77;97670.66;117230;1176;71161;-74
2021/09/23 03:05:44;;;;;;;17.00;9.90;;;;;;;6.60;85.59;97670.42;117067;1176;69346;-72
2021/09/23 03:08:13;;;;;;;14.70;9.50;;;;;;;6.59;85.89;97672.40;117006;1177;68267;-73
2021/09/23 03:10:45;;;;;;;12.50;9.00;;;;;;;6.58;85.59;97674.07;117196;1176;59533;-74
2021/09/23 03:13:16;;;;;;;14.30;9.20;;;;;;;6.57;85.89;97675.42;117002;1177;59521;-73
2021/09/23 03:15:48;;;;;;;14.30;9.00;;;;;;;6.55;85.72;97676.07;116984;1177;70541;-68
2021/09/23 03:18:18;;;;;;;12.50;9.20;;;;;;;6.53;85.95;97675.86;116989;1176;68501;-75
2021/09/23 03:20:48;;;;;;;15.90;9.80;;;;;;;6.51;85.76;97679.73;117231;1177;69049;-74
2021/09/23 03:23:18;;;;;;;13.10;9.60;;;;;;;6.48;85.54;97674.98;117178;1177;59509;-71
2021/09/23 03:25:50;;;;;;;13.60;10.00;;;;;;;6.47;85.32;97679.92;117311;1177;59605;-74
2021/09/23 03:28:19;;;;;;;12.30;9.10;;;;;;;6.46;85.50;97679.29;117252;1176;70626;-69
2021/09/23 03:30:49;;;;;;;14.10;9.50;;;;;;;6.46;85.39;97681.17;117333;1172;69171;-70
2021/09/23 03:33:18;;;;;;;12.60;9.50;;;;;;;6.45;85.44;97682.67;117246;1177;69080;-71
2021/09/23 03:35:54;;;;;;;14.10;9.20;;;;;;;6.44;85.34;97692.20;116947;1177;59466;-70
2021/09/23 03:38:34;;;;;;;15.60;10.20;;;;;;;6.43;85.51;97689.38;117274;1177;59468;-73
2021/09/23 03:41:09;;;;;;;12.10;9.20;;;;;;;6.42;85.24;97683.17;117275;1177;71823;-73
2021/09/23 03:43:38;;;;;;;13.30;9.60;;;;;;;6.42;84.80;97681.53;117041;1177;69526;-75
2021/09/23 03:46:07;;;;;;;13.10;9.60;;;;;;;6.41;84.76;97681.30;117311;1177;68581;-72
2021/09/23 03:48:37;;;;;;;13.00;10.10;;;;;;;6.41;85.19;97681.85;117011;1177;59586;-74
2021/09/23 03:51:06;;;;;;;9.70;7.60;;;;;;;6.40;84.96;97684.77;117007;1176;58519;-74
2021/09/23 03:53:38;;;;;;;12.90;8.40;;;;;;;6.36;84.82;97681.98;117049;1177;71748;-72
2021/09/23 03:56:12;;;;;;;16.70;9.60;;;;;;;6.35;84.71;97682.69;117167;1173;68989;-74
2021/09/23 03:58:46;;;;;;;11.20;8.40;;;;;;;6.33;84.97;97681.61;117051;1177;67322;-74
2021/09/23 04:01:15;;;;;;;12.80;9.70;;;;;;;6.32;84.99;97684.45;117337;1176;59484;-73
2021/09/23 04:03:45;;;;;;;14.00;9.10;;;;;;;6.29;85.18;97680.71;117066;1176;59522;-72
2021/09/23 04:06:15;;;;;;;13.70;9.10;;;;;;;6.27;84.75;97677.95;117242;1177;71305;-75
2021/09/23 04:08:50;;;;;;;15.50;9.70;;;;;;;6.25;84.86;97679.45;117164;1177;69057;-68
2021/09/23 04:11:26;;;;;;;12.70;9.30;;;;;;;6.23;84.55;97684.83;117388;1175;68915;-73
2021/09/23 04:14:13;;;;;;;11.40;8.40;;;;;;;6.22;84.81;97688.30;117039;1176;59510;-74
2021/09/23 04:16:42;;;;;;;12.90;9.00;;;;;;;6.20;85.11;97688.48;117387;1176;59472;-74
2021/09/23 04:19:18;;;;;;;14.00;8.40;;;;;;;6.21;85.21;97691.68;117243;1176;70380;-72
2021/09/23 04:21:47;;;;;;;;;;;;;;;6.21;85.22;97687.60;117358;1176;68413;-72
2021/09/23 04:24:17;;;;;;;14.50;8.80;;;;;;;6.20;85.11;97693.42;117368;1176;67852;-70
2021/09/23 04:26:47;;;;;;;16.00;9.80;;;;;;;6.20;84.81;97697.91;117354;1176;59965;-75
2021/09/23 04:29:16;;;;;;;12.20;8.80;;;;;;;6.19;85.08;97705.77;117064;1177;59574;-69
2021/09/23 04:31:46;;;;;;;11.40;7.70;;;;;;;6.19;84.81;97706.33;117280;1177;70822;-69
2021/09/23 04:34:15;;;;;;;12.60;9.30;;;;;;;6.17;84.38;97705.95;117242;1175;69264;-75
2021/09/23 04:36:44;;;;;;;15.70;9.10;;;;;;;6.17;84.52;97708.62;117401;1177;68457;-74
2021/09/23 04:39:16;;;;;;;11.90;8.80;;;;;;;6.15;84.60;97713.35;117310;1177;59559;-74
2021/09/23 04:41:46;;;;;;;18.40;9.60;;;;;;;6.15;84.51;97716.89;117303;1176;59500;-73
2021/09/23 04:44:15;;;;;;;13.10;9.30;;;;;;;6.15;84.38;97723.33;117371;1177;71973;-74
2021/09/23 04:46:44;;;;;;;13.50;9.10;;;;;;;6.15;84.49;97722.70;117103;1177;68318;-72
2021/09/23 04:49:14;;;;;;;13.20;8.20;;;;;;;6.15;84.37;97718.45;117215;1176;68535;-70
2021/09/23 04:51:43;;;;;;;10.60;7.40;;;;;;;6.16;84.36;97718.45;117300;1176;59484;-74
2021/09/23 04:54:13;;;;;;;14.20;9.60;;;;;;;6.15;84.26;97715.86;117243;1177;59484;-74
2021/09/23 04:56:41;;;;;;;12.30;8.50;;;;;;;6.15;84.55;97717.52;117142;1177;70606;-75
2021/09/23 04:59:11;;;;;;;11.70;8.60;;;;;;;6.16;84.31;97718.61;117109;1177;69274;-75
2021/09/23 05:01:40;;;;;;;16.60;8.90;;;;;;;6.16;84.17;97718.52;117053;1177;68358;-75
2021/09/23 05:04:10;;;;;;;12.50;8.50;;;;;;;6.16;84.00;97725.12;117372;1177;59586;-71
2021/09/23 05:06:40;;;;;;;15.70;7.50;;;;;;;6.17;83.97;97728.02;117069;1177;59592;-74
2021/09/23 05:09:11;;;;;;;10.30;7.80;;;;;;;6.19;83.80;97728.09;117082;1176;71372;-72
2021/09/23 05:11:41;;;;;;;11.90;8.70;;;;;;;6.20;83.55;97727.92;117091;1177;67501;-70
2021/09/23 05:14:15;;;;;;;12.70;8.50;;;;;;;6.21;83.65;97733.65;117292;1177;68540;-75
2021/09/23 05:16:45;;;;;;;12.30;7.50;;;;;;;6.22;83.20;97736.62;117275;1177;59520;-70
2021/09/23 05:19:14;;;;;;;10.90;7.90;;;;;;;6.24;83.47;97748.46;117410;1176;59561;-75
2021/09/23 05:21:44;;;;;;;13.20;7.50;;;;;;;6.27;83.34;97755.05;117382;1176;71308;-68
2021/09/23 05:24:17;;;;;;;11.80;7.90;;;;;;;6.31;83.63;97756.29;117259;1177;68799;-69
2021/09/23 05:26:46;;;;;;;12.60;7.40;;;;;;;6.35;83.20;97751.38;117441;1176;67941;-72
2021/09/23 05:29:15;;;;;;;12.90;7.70;;;;;;;6.38;83.07;97746.40;117377;1175;59913;-72
2021/09/23 05:31:54;;;;;;;12.30;8.10;;;;;;;6.43;82.61;97744.55;117073;1177;59541;-69
2021/09/23 05:34:24;;;;;;;12.30;7.90;;;;;;;6.46;82.90;97744.61;117391;1175;71377;-75
2021/09/23 05:36:53;;;;;;;11.60;7.50;;;;;;;6.49;82.83;97747.66;117033;1177;69370;-69
2021/09/23 05:39:21;;;;;;;11.50;7.50;;;;;;;6.52;82.30;97749.52;117377;1175;68561;-71
2021/09/23 05:41:50;;;;;;;11.10;7.90;;;;;;;6.57;82.52;97755.05;117405;1176;59481;-70
2021/09/23 05:44:25;;;;;;;12.40;7.70;;;;;;;6.56;81.26;97750.66;117183;1176;59519;-70
2021/09/23 05:46:55;;;;;;;11.80;7.10;;;;;;;6.63;81.71;97754.69;117408;1175;70637;-71
2021/09/23 05:49:24;;;;;;;9.70;6.50;;;;;;;6.68;81.61;97753.48;117136;1177;68604;-68
2021/09/23 05:51:56;;;;;;;10.70;7.30;;;;;;;6.65;81.12;97750.66;117106;1175;69423;-70
2021/09/23 05:54:26;;;;;;;11.20;7.60;;;;;;;6.70;80.91;97754.64;117420;1175;59540;-70
2021/09/23 05:56:55;;;;;;;12.50;8.00;;;;;;;6.72;80.90;97751.23;117186;1177;59624;-70
2021/09/23 05:59:26;;;;;;;12.80;6.90;;;;;;;6.77;81.36;97751.41;117516;1175;71407;-74
2021/09/23 06:01:55;;;;;;;10.00;7.00;;;;;;;6.82;81.13;97754.20;117411;1175;69061;-72
2021/09/23 06:04:26;;;;;;;11.20;7.40;;;;;;;6.85;81.15;97761.27;117313;1175;68439;-68
2021/09/23 06:06:57;;;;;;;11.00;7.20;;;;;;;6.91;81.49;97764.27;117176;1177;59626;-69
2021/09/23 06:09:34;;;;;;;10.30;6.70;;;;;;;6.98;80.75;97769.23;117291;1171;59561;-69
2021/09/23 06:12:04;;;;;;;11.00;5.70;;;;;;;7.04;80.45;97773.83;117418;1175;71441;-73
2021/09/23 06:14:33;;;;;;;9.90;6.80;;;;;;;7.07;80.14;97774.59;117433;1172;69777;-74
2021/09/23 06:17:04;;;;;;;12.80;7.20;;;;;;;7.13;79.67;97783.41;117314;1176;69343;-71
2021/09/23 06:19:33;;;;;;;12.00;7.10;;;;;;;7.17;79.82;97778.73;117450;1169;59500;-73
2021/09/23 06:22:03;;;;;;;9.80;6.50;;;;;;;7.24;80.06;97784.32;117429;1175;59482;-72
2021/09/23 06:24:32;;;;;;;10.20;6.80;;;;;;;7.31;79.47;97774.56;117411;1175;71368;-75
2021/09/23 06:27:02;;;;;;;11.50;7.20;;;;;;;7.26;78.27;97772.89;117415;1175;68571;-73
2021/09/23 06:29:30;;;;;;;9.80;6.50;;;;;;;7.29;78.63;97775.77;117399;1175;69342;-69
2021/09/23 06:32:00;;;;;;;9.30;6.40;;;;;;;7.38;79.45;97774.64;117366;1175;59484;-69
2021/09/23 06:34:29;;;;;;;8.10;5.70;;;;;;;7.46;79.85;97779.04;117173;1176;59520;-74
2021/09/23 06:36:58;;;;;;;10.10;6.30;;;;;;;7.49;77.92;97781.05;117245;1176;70618;-71
2021/09/23 06:39:27;;;;;;;12.00;5.90;;;;;;;7.50;77.78;97781.27;117430;1175;68620;-73
2021/09/23 06:41:58;;;;;;;9.10;5.80;;;;;;;7.60;78.17;97787.63;117404;1175;69264;-70
2021/09/23 06:44:27;;;;;;;12.40;6.60;;;;;;;7.68;78.15;97788.70;117443;1175;59504;-74
2021/09/23 06:46:56;;;;;;;9.20;6.20;;;;;;;7.79;78.43;97786.13;117395;1176;59517;-73
2021/09/23 06:49:26;;;;;;;10.30;6.30;;;;;;;7.83;77.19;97779.20;117143;1177;70624;-72
2021/09/23 06:51:54;;;;;;;10.40;6.50;;;;;;;7.94;76.95;97777.35;117414;1175;68552;-72
2021/09/23 06:54:23;;;;;;;11.90;6.70;;;;;;;8.04;77.12;97777.51;117370;1175;69269;-69
2021/09/23 06:56:52;;;;;;;9.60;5.50;;;;;;;8.12;77.03;97778.91;117394;1175;59456;-69
2021/09/23 06:59:21;;;;;;;10.60;6.20;;;;;;;8.22;76.54;97780.27;117396;1177;59500;-72
2021/09/23 07:01:52;;;;;;;11.50;6.30;;;;;;;8.32;76.42;97785.10;116991;1177;71387;-73
2021/09/23 07:05:00;;;;;;;11.80;6.20;;;;;;;8.43;76.11;97792.52;116888;1179;68707;-70
2021/09/23 07:07:33;;;;;;;9.00;5.70;;;;;;;8.49;75.23;97797.57;116908;1179;68702;-71
2021/09/23 07:10:05;;;;;;;10.90;5.60;;;;;;;8.53;74.74;97796.31;117111;1175;59537;-70
2021/09/23 07:12:34;;;;;;;10.10;6.40;;;;;;;8.56;74.83;97795.63;117001;1176;59580;-73
2021/09/23 07:15:04;;;;;;;8.70;5.50;;;;;;;8.62;75.23;97803.66;117346;1166;71434;-69
2021/09/23 07:17:35;;;;;;;8.40;5.60;;;;;;;8.66;74.14;97803.14;117292;1167;69533;-70
2021/09/23 07:20:05;;;;;;;;;;;;;;;8.68;74.89;97808.23;117075;1177;69291;-70
2021/09/23 07:22:34;;;;;;;9.00;5.80;;;;;;;8.72;74.32;97808.16;117415;1176;59484;-69
2021/09/23 07:25:04;;;;;;;13.90;5.60;;;;;;;8.67;73.35;97812.02;117350;1167;59510;-72
2021/09/23 07:27:33;;;;;;;8.20;5.50;;;;;;;8.66;73.49;97808.73;117022;1177;71165;-70
2021/09/23 07:30:03;;;;;;;11.00;5.40;;;;;;;8.69;73.26;97808.92;117160;1177;68580;-71
2021/09/23 07:32:32;;;;;;;8.30;6.10;;;;;;;8.67;73.02;97812.02;117110;1177;68683;-73
2021/09/23 07:35:01;;;;;;;10.40;6.30;;;;;;;8.70;73.99;97817.89;117441;1176;59507;-72
2021/09/23 07:37:33;;;;;;;7.70;5.90;;;;;;;8.83;74.17;97820.05;117433;1175;59523;-69
2021/09/23 07:40:04;;;;;;;8.80;5.90;;;;;;;8.97;73.48;97814.21;117440;1175;70737;-70
2021/09/23 07:42:34;;;;;;;8.90;5.60;;;;;;;9.11;73.49;97814.30;117514;1176;69143;-69
2021/09/23 07:45:05;;;;;;;8.20;5.80;;;;;;;9.19;71.73;97818.43;117407;1175;68445;-71
2021/09/23 07:47:34;;;;;;;8.30;5.40;;;;;;;9.27;71.91;97819.70;117106;1176;59870;-71
2021/09/23 07:50:04;;;;;;;9.30;5.50;;;;;;;9.40;72.09;97820.90;117266;1177;59561;-68
2021/09/23 07:52:33;;;;;;;12.10;5.70;;;;;;;9.52;71.60;97822.96;117186;1177;69723;-70
2021/09/23 07:55:03;;;;;;;7.90;5.60;;;;;;;9.63;71.22;97823.37;117176;1176;69039;-74
2021/09/23 07:57:34;;;;;;;8.60;5.80;;;;;;;9.71;70.89;97827.02;117396;1175;69159;-74
2021/09/23 08:00:05;;;;;;;9.90;4.90;;;;;;;9.81;70.47;97825.79;117453;1176;59481;-68
2021/09/23 08:02:44;;;;;;;9.40;5.20;;;;;;;9.84;69.20;97828.89;117336;1175;59545;-69
2021/09/23 08:05:17;;;;;;;7.20;4.80;;;;;;;9.80;68.76;97828.80;117098;1177;70738;-69
2021/09/23 08:07:48;;;;;;;8.30;5.20;;;;;;;9.72;68.83;97834.66;117107;1177;68515;-70
2021/09/23 08:10:17;;;;;;;7.60;4.90;;;;;;;9.72;69.67;97831.27;117093;1175;69291;-68
2021/09/23 08:12:47;;;;;;;9.60;5.10;;;;;;;9.79;69.51;97832.70;117015;1177;59495;-71
2021/09/23 08:15:19;;;;;;;7.60;5.20;;;;;;;9.88;69.81;97832.52;117439;1176;59488;-69
2021/09/23 08:18:08;;;;;;;7.00;4.90;;;;;;;10.00;69.70;97829.20;117411;1175;70575;-68
2021/09/23 08:20:52;;;;;;;8.50;5.20;;;;;;;10.11;68.13;97825.27;117367;1176;69353;-70
2021/09/23 08:23:22;;;;;;;9.00;4.80;;;;;;;10.09;66.87;97821.97;117153;1177;69159;-73
2021/09/23 08:25:53;;;;;;;7.80;5.40;;;;;;;10.27;68.12;97819.34;117396;1175;59478;-71
2021/09/23 08:28:26;;;;;;;7.80;5.30;;;;;;;10.44;67.56;97819.27;117433;1175;59554;-75
2021/09/23 08:30:56;;;;;;;6.60;4.80;;;;;;;10.54;66.34;97821.63;117427;1176;71195;-71
2021/09/23 08:33:25;;;;;;;6.20;4.00;;;;;;;10.64;66.64;97823.33;117346;1177;68582;-69
2021/09/23 08:35:55;;;;;;;8.10;5.10;;;;;;;10.48;64.90;97817.67;117357;1175;68310;-72
2021/09/23 08:38:24;;;;;;;8.70;5.40;;;;;;;10.68;66.37;97819.11;117064;1177;59532;-70
2021/09/23 08:40:53;;;;;;;8.40;4.60;;;;;;;10.89;66.13;97818.06;117056;1175;59576;-71
2021/09/23 08:43:24;;;;;;;6.30;4.60;;;;;;;11.04;64.90;97814.52;117268;1177;70613;-75
2021/09/23 08:45:56;;;;;;;6.90;4.80;;;;;;;10.99;64.00;97809.90;116939;1177;69117;-75
2021/09/23 08:48:33;;;;;;;7.10;4.30;;;;;;;11.02;63.91;97807.11;117022;1177;68486;-75
2021/09/23 08:51:04;;;;;;;6.30;4.70;;;;;;;11.09;64.48;97805.52;116973;1178;59596;-75
2021/09/23 08:53:42;;;;;;;7.60;4.70;;;;;;;11.38;64.57;97801.83;117015;1168;59497;-72
2021/09/23 08:56:13;;;;;;;8.40;4.70;;;;;;;11.66;64.02;97805.92;116952;1171;71384;-76
2021/09/23 08:58:44;;;;;;;7.40;4.50;;;;;;;11.92;63.38;97808.06;116941;1179;69373;-76
2021/09/23 09:01:18;;;;;;;6.50;4.40;;;;;;;12.24;62.18;97802.86;116851;1177;68374;-72
2021/09/23 09:04:11;;;;;;;6.90;4.00;;;;;;;12.55;60.19;97804.75;117315;1176;59493;-75
2021/09/23 09:07:02;;;;;;;7.40;4.40;;;;;;;12.75;58.67;97799.84;116977;1176;59519;-76
2021/09/23 09:10:11;;;;;;;8.20;4.20;;;;;;;13.00;59.05;97800.04;116852;1178;71141;-75
2021/09/23 09:12:45;;;;;;;7.10;3.70;;;;;;;13.27;59.43;97799.74;116551;1179;69432;-70
2021/09/23 09:15:17;;;;;;;5.80;4.10;;;;;;;13.46;58.26;97792.87;117100;1177;69215;-69
2021/09/23 09:17:48;;;;;;;7.20;4.50;;;;;;;13.48;56.43;97794.80;117441;1177;59513;-74
2021/09/23 09:20:17;;;;;;;;;;;;;;;13.44;57.74;97789.67;117405;1175;59467;-73
2021/09/23 09:22:46;;;;;;;6.00;4.00;;;;;;;13.54;56.31;97788.63;117405;1175;71813;-70
2021/09/23 09:25:15;;;;;;;6.80;3.90;;;;;;;13.49;55.94;97789.65;117415;1177;69209;-72
2021/09/23 09:27:50;;;;;;;5.60;3.80;;;;;;;13.57;56.47;97786.19;117396;1176;69007;-74
2021/09/23 09:30:23;;;;;;;9.30;4.20;;;;;;;13.22;54.60;97788.36;117088;1177;59586;-73
2021/09/23 09:32:58;;;;;;;7.00;4.10;;;;;;;13.20;56.71;97795.38;117434;1177;59478;-73
2021/09/23 09:35:36;;;;;;;7.50;4.40;;;;;;;13.15;56.66;97794.57;117426;1175;71334;-73
2021/09/23 09:38:10;;;;;;;6.70;4.20;;;;;;;13.04;56.95;97794.52;117052;1175;69291;-74
2021/09/23 09:40:44;;;;;;;6.30;4.20;;;;;;;12.82;57.25;97793.64;117016;1176;68620;-76
2021/09/23 09:43:17;;;;;;;7.10;4.50;;;;;;;12.57;57.58;97796.98;116999;1177;59533;-79
2021/09/23 09:45:51;;;;;;;8.60;4.10;;;;;;;12.32;58.39;97797.20;116974;1176;59551;-77
2021/09/23 09:48:31;;;;;;;8.90;4.10;;;;;;;12.25;59.19;97798.14;116822;1177;72324;-76
2021/09/23 09:51:10;;;;;;;7.30;4.50;;;;;;;12.14;58.19;97795.61;117032;1175;69214;-78
2021/09/23 09:53:55;;;;;;;6.50;4.30;;;;;;;12.08;58.65;97796.58;116995;1171;69277;-77
2021/09/23 09:56:33;;;;;;;;;;;;;;;12.13;59.09;97798.58;116934;1177;59548;-76
2021/09/23 09:59:18;;;;;;;9.10;4.60;;;;;;;12.09;57.97;97796.23;117012;1177;59583;-76
2021/09/23 10:01:57;;;;;;;7.70;4.50;;;;;;;12.17;57.75;97796.30;116956;1179;70436;-76
2021/09/23 10:04:32;;;;;;;7.40;4.70;;;;;;;12.18;58.02;97797.45;116952;1177;68476;-75
2021/09/23 10:07:04;;;;;;;6.90;4.50;;;;;;;12.05;58.24;97802.93;116966;1177;69164;-76
2021/09/23 10:09:42;;;;;;;8.60;4.50;;;;;;;11.99;58.38;97802.00;116952;1175;59484;-78
2021/09/23 10:12:16;;;;;;;5.70;4.00;;;;;;;12.06;60.03;97801.80;116874;1173;59638;-73
2021/09/23 10:14:47;;;;;;;8.10;5.10;;;;;;;12.23;59.31;97797.40;117044;1176;71350;-75
2021/09/23 10:17:18;;;;;;;7.50;4.90;;;;;;;12.43;58.84;97803.08;116812;1177;67966;-77
2021/09/23 10:19:49;;;;;;;9.50;4.30;;;;;;;12.58;58.20;97799.67;116922;1176;68334;-77
2021/09/23 10:22:18;;;;;;;7.40;4.70;;;;;;;12.49;57.16;97798.28;116917;1176;59516;-74
2021/09/23 10:24:49;;;;;;;7.70;4.80;;;;;;;12.53;57.50;97797.27;117105;1177;59471;-77
2021/09/23 10:30:38;;;;;;;8.10;4.90;;;;;;;12.57;57.74;97795.73;116962;1177;68771;-77
2021/09/23 10:33:10;;;;;;;8.40;5.00;;;;;;;12.56;57.68;97796.46;116975;1178;69507;-72
2021/09/23 10:35:42;;;;;;;8.60;5.30;;;;;;;12.48;57.21;97793.55;116963;1177;59590;-76
2021/09/23 10:38:20;;;;;;;6.80;4.70;;;;;;;12.54;57.72;97792.33;117065;1176;59543;-76
2021/09/23 10:40:50;;;;;;;8.20;4.90;;;;;;;12.62;56.99;97787.64;117007;1177;72472;-76
2021/09/23 10:43:21;;;;;;;8.50;4.80;;;;;;;12.67;57.33;97790.50;116960;1176;69172;-75
2021/09/23 10:45:58;;;;;;;7.70;5.30;;;;;;;12.63;56.75;97788.89;117202;1177;69298;-76
2021/09/23 10:48:40;;;;;;;7.80;4.70;;;;;;;12.64;57.12;97788.99;116981;1178;59552;-76
2021/09/23 10:51:15;;;;;;;6.40;4.30;;;;;;;12.65;57.01;97791.75;116955;1177;59465;-75
2021/09/23 10:53:55;;;;;;;7.40;4.90;;;;;;;12.75;56.84;97789.02;117069;1177;71350;-72
2021/09/23 10:56:28;;;;;;;7.90;4.90;;;;;;;12.80;56.10;97786.27;116978;1178;68679;-75
2021/09/23 10:59:03;;;;;;;9.00;5.30;;;;;;;12.79;56.05;97788.61;116976;1177;68549;-76
2021/09/23 11:01:40;;;;;;;8.20;5.40;;;;;;;12.73;55.97;97792.05;116979;1177;59601;-73
2021/09/23 11:04:36;;;;;;;11.10;4.90;;;;;;;12.65;55.93;97790.55;116980;1177;59538;-76
2021/09/23 11:07:11;;;;;;;9.20;4.80;;;;;;;12.37;54.75;97784.84;117003;1177;71418;-77
2021/09/23 11:10:18;;;;;;;10.00;4.70;;;;;;;12.26;55.86;97781.21;117009;1177;67756;-77
2021/09/23 11:12:57;;;;;;;7.00;4.70;;;;;;;12.05;56.67;97778.58;116893;1177;68451;-76
2021/09/23 11:15:34;;;;;;;6.80;4.50;;;;;;;11.96;57.33;97786.63;116945;1177;59580;-75
2021/09/23 11:18:10;;;;;;;9.90;5.00;;;;;;;11.99;56.26;97779.70;116781;1179;59453;-76
2021/09/23 11:20:52;;;;;;;7.90;4.70;;;;;;;11.99;56.37;97777.57;116989;1179;71386;-76
2021/09/23 11:23:26;;;;;;;8.10;4.60;;;;;;;11.99;56.50;97778.36;116949;1177;69897;-72
2021/09/23 11:26:04;;;;;;;6.70;4.40;;;;;;;12.06;56.69;97772.84;116734;1177;69293;-76
2021/09/23 11:28:38;;;;;;;9.40;4.80;;;;;;;12.15;56.31;97774.98;116930;1177;59506;-76
2021/09/23 11:31:09;;;;;;;8.90;5.20;;;;;;;12.17;56.42;97782.04;116921;1178;59635;-76
2021/09/23 11:33:43;;;;;;;5.60;3.90;;;;;;;12.23;56.26;97780.98;116959;1176;72710;-80
2021/09/23 11:36:15;;;;;;;7.70;5.10;;;;;;;12.27;55.97;97775.70;116996;1177;68477;-76
2021/09/23 11:38:56;;;;;;;7.10;4.90;;;;;;;12.34;55.54;97782.20;116824;1179;69367;-78
2021/09/23 11:41:28;;;;;;;6.50;4.20;;;;;;;12.43;55.68;97776.89;116886;1176;59558;-77
2021/09/23 11:44:25;;;;;;;8.90;4.60;;;;;;;12.46;55.31;97780.29;116878;1175;59491;-76
2021/09/23 11:47:15;;;;;;;6.60;4.60;;;;;;;12.48;55.11;97782.29;117221;1176;71422;-73
2021/09/23 11:49:54;;;;;;;7.30;4.80;;;;;;;12.57;55.70;97786.20;116920;1177;69352;-75
2021/09/23 11:52:39;;;;;;;7.70;4.90;;;;;;;12.59;54.55;97786.71;117202;1177;69423;-75
2021/09/23 11:55:18;;;;;;;7.60;4.60;;;;;;;12.51;54.21;97782.99;116907;1177;59604;-77
2021/09/23 11:58:05;;;;;;;9.20;4.70;;;;;;;12.42;54.51;97786.13;116974;1177;59529;-75